Time;durP1;ratioP1;P1;durP2;ratioP2;P2;SDS_P1;SDS_P2;PMS_P1;PMS_P2;Temp;Humidity;BMP_temperature;BMP_pressure;BME280_temperature;BME280_humidity;BME280_pressure;Samples;Min_cycle;Max_cycle;Signal;HPM_P1;HPM_P2
2023/04/02 00:01:48;;;;;;;4.70;0.70;;;9.20;20.90;;;;;;5067462;28;20395;-61
2023/04/02 00:04:21;;;;;;;3.80;0.40;;;9.30;99.90;;;;;;5031933;28;20451;-61
2023/04/02 00:06:53;;;;;;;4.95;0.60;;;9.50;99.90;;;;;;5061533;28;20410;-62
2023/04/02 00:09:30;;;;;;;4.53;0.60;;;9.30;88.20;;;;;;5068799;28;20435;-62
2023/04/02 00:11:56;;;;;;;4.33;0.60;;;9.20;1.00;;;;;;5050456;28;20397;-61
2023/04/02 00:14:36;;;;;;;6.40;0.60;;;9.30;99.90;;;;;;5050615;28;20394;-62
2023/04/02 00:17:04;;;;;;;4.10;0.50;;;9.20;99.90;;;;;;5052367;28;20406;-62
2023/04/02 00:19:42;;;;;;;4.00;0.50;;;9.20;1.00;;;;;;5069325;28;20392;-62
2023/04/02 00:22:19;;;;;;;5.10;0.90;;;9.20;99.90;;;;;;5053837;28;20400;-58
2023/04/02 00:24:45;;;;;;;4.90;0.50;;;9.30;1.00;;;;;;5061950;28;20408;-62
2023/04/02 00:27:13;;;;;;;4.00;0.50;;;9.40;99.90;;;;;;5063627;28;20395;-60
2023/04/02 00:29:50;;;;;;;4.00;0.60;;;9.90;99.90;;;;;;5063866;28;20413;-62
2023/04/02 00:32:24;;;;;;;5.30;0.70;;;9.50;8.20;;;;;;5049148;28;20397;-61
2023/04/02 00:34:50;;;;;;;4.00;0.50;;;9.60;1.00;;;;;;5058028;28;20417;-62
2023/04/02 00:37:22;;;;;;;4.93;0.70;;;9.50;1.00;;;;;;5057535;28;20859;-62
2023/04/02 00:39:56;;;;;;;5.13;0.80;;;9.40;1.00;;;;;;5051063;28;20394;-61
2023/04/02 00:42:24;;;;;;;4.00;0.50;;;9.40;99.90;;;;;;5058843;28;20406;-62
2023/04/02 00:44:50;;;;;;;3.90;0.60;;;9.40;1.00;;;;;;5056187;28;20525;-62
2023/04/02 00:47:21;;;;;;;4.20;0.60;;;9.40;1.00;;;;;;5053786;28;20759;-62
2023/04/02 00:49:53;;;;;;;4.20;0.50;;;9.50;1.00;;;;;;5049885;28;20421;-60
2023/04/02 00:52:23;;;;;;;3.90;0.40;;;9.60;99.90;;;;;;5048074;28;20390;-62
2023/04/02 00:54:52;;;;;;;4.10;0.50;;;9.60;99.90;;;;;;5050615;28;20504;-62
2023/04/02 00:57:25;;;;;;;3.90;0.50;;;9.50;99.90;;;;;;5051849;28;20489;-62
2023/04/02 01:00:02;;;;;;;4.03;0.40;;;9.60;99.90;;;;;;5069433;28;20487;-62
2023/04/02 01:02:34;;;;;;;4.50;0.40;;;9.30;1.00;;;;;;5066666;28;20407;-62
2023/04/02 01:05:21;;;;;;;6.50;0.60;;;9.30;99.90;;;;;;5064460;28;20384;-62
2023/04/02 01:08:19;;;;;;;3.97;0.52;;;9.40;99.90;;;;;;5058513;28;20417;-62
2023/04/02 01:10:59;;;;;;;4.30;0.50;;;9.40;95.80;;;;;;5056452;28;20407;-62
2023/04/02 01:13:59;;;;;;;4.10;0.52;;;9.40;99.90;;;;;;5067066;28;20766;-63
2023/04/02 01:16:31;;;;;;;5.20;0.70;;;9.40;30.80;;;;;;5068728;28;20906;-62
2023/04/02 01:19:35;;;;;;;4.10;0.63;;;9.50;1.00;;;;;;5051751;28;20433;-62
2023/04/02 01:22:18;;;;;;;4.00;0.50;;;9.60;99.90;;;;;;5032798;28;20422;-63
2023/04/02 01:24:44;;;;;;;3.88;0.40;;;9.70;99.90;;;;;;5056522;28;20400;-61
2023/04/02 01:27:33;;;;;;;4.20;0.60;;;9.70;99.90;;;;;;5069583;28;20452;-58
2023/04/02 01:30:01;;;;;;;3.90;0.40;;;9.70;99.90;;;;;;5054739;28;20421;-62
2023/04/02 01:32:29;;;;;;;4.40;0.60;;;9.60;99.90;;;;;;5052698;28;20403;-62
2023/04/02 01:34:55;;;;;;;4.70;0.60;;;9.60;99.90;;;;;;5052946;28;20404;-61
2023/04/02 01:37:48;;;;;;;4.30;0.50;;;9.60;1.00;;;;;;5058304;28;20482;-61
2023/04/02 01:40:17;;;;;;;5.80;0.60;;;9.60;1.00;;;;;;5068023;28;20931;-62
2023/04/02 01:43:13;;;;;;;3.90;0.50;;;9.60;1.00;;;;;;5053324;28;20401;-61
2023/04/02 01:45:39;;;;;;;3.90;0.40;;;9.60;1.00;;;;;;5046503;28;20397;-61
2023/04/02 01:48:28;;;;;;;4.30;0.50;;;9.50;1.00;;;;;;5062599;28;20769;-62
2023/04/02 01:50:58;;;;;;;4.10;0.50;;;9.50;1.00;;;;;;5070356;28;20502;-63
2023/04/02 01:53:26;;;;;;;4.22;0.50;;;9.50;1.00;;;;;;5071971;28;20418;-62
2023/04/02 01:55:53;;;;;;;4.20;0.70;;;9.90;1.00;;;;;;5053446;28;20412;-62
2023/04/02 01:58:24;;;;;;;3.97;0.50;;;9.50;1.00;;;;;;5060514;28;20411;-62
2023/04/02 02:01:08;;;;;;;4.10;0.50;;;9.40;99.90;;;;;;5066425;28;20417;-63
2023/04/02 02:03:34;;;;;;;3.90;0.40;;;9.30;99.90;;;;;;5054830;28;20450;-62
2023/04/02 02:06:01;;;;;;;4.00;0.50;;;9.30;1.00;;;;;;5058678;28;20385;-62
2023/04/02 02:08:29;;;;;;;4.10;0.45;;;9.40;99.90;;;;;;5067712;28;20422;-60
2023/04/02 02:10:56;;;;;;;3.60;0.30;;;9.20;26.10;;;;;;5064260;28;20393;-60
2023/04/02 02:13:21;;;;;;;4.10;0.60;;;9.30;99.90;;;;;;5035429;28;20429;-62
2023/04/02 02:15:47;;;;;;;3.87;0.50;;;9.40;49.70;;;;;;5059096;28;20875;-62
2023/04/02 02:18:18;;;;;;;4.10;0.50;;;9.40;1.00;;;;;;5064517;28;20395;-59
2023/04/02 02:20:45;;;;;;;3.97;0.40;;;9.40;1.00;;;;;;5038924;28;20384;-62
2023/04/02 02:23:11;;;;;;;5.10;0.40;;;9.30;1.00;;;;;;5068233;28;20417;-57
2023/04/02 02:25:38;;;;;;;3.60;0.30;;;9.50;1.00;;;;;;5070500;28;20395;-61
2023/04/02 02:28:13;;;;;;;4.00;0.43;;;9.50;99.90;;;;;;5063476;28;20409;-62
2023/04/02 02:30:43;;;;;;;5.10;0.68;;;9.50;99.90;;;;;;5050461;28;20428;-61
2023/04/02 02:33:25;;;;;;;3.70;0.30;;;9.60;1.00;;;;;;5067998;28;20393;-58
2023/04/02 02:36:06;;;;;;;4.20;0.50;;;9.60;58.90;;;;;;5061019;28;20404;-63
2023/04/02 02:38:46;;;;;;;4.35;0.50;;;9.60;1.00;;;;;;5071708;28;20891;-63
2023/04/02 02:41:11;;;;;;;4.10;0.32;;;9.60;1.00;;;;;;5046315;28;20398;-59
2023/04/02 02:43:40;;;;;;;6.10;0.50;;;9.70;1.00;;;;;;5064971;28;20399;-62
2023/04/02 02:46:10;;;;;;;3.90;0.40;;;9.60;1.00;;;;;;5069745;28;20388;-62
2023/04/02 02:48:39;;;;;;;5.20;0.50;;;9.60;99.90;;;;;;5051809;28;20444;-63
2023/04/02 02:51:14;;;;;;;4.00;0.40;;;9.60;1.00;;;;;;5056476;28;20409;-63
2023/04/02 02:53:51;;;;;;;3.92;0.50;;;9.40;99.90;;;;;;5051939;28;20385;-63
2023/04/02 02:56:19;;;;;;;3.90;0.50;;;9.50;99.90;;;;;;5044260;28;20447;-63
2023/04/02 02:58:45;;;;;;;3.90;0.50;;;9.60;99.90;;;;;;5059594;28;20405;-61
2023/04/02 03:01:11;;;;;;;4.88;0.40;;;9.60;99.90;;;;;;5059137;28;20888;-58
2023/04/02 03:03:37;;;;;;;3.90;0.30;;;9.60;1.00;;;;;;5055709;28;21166;-63
2023/04/02 03:06:09;;;;;;;4.40;0.50;;;9.60;1.00;;;;;;5033760;28;20746;-60
2023/04/02 03:09:09;;;;;;;3.80;0.30;;;9.50;99.90;;;;;;5051238;28;20452;-62
2023/04/02 03:11:58;;;;;;;3.90;0.40;;;9.40;99.90;;;;;;5030878;28;20408;-62
2023/04/02 03:14:36;;;;;;;3.80;0.30;;;9.40;1.00;;;;;;5065965;28;20405;-62
2023/04/02 03:17:28;;;;;;;3.70;0.30;;;9.40;1.00;;;;;;5055826;28;20453;-61
2023/04/02 03:20:05;;;;;;;3.90;0.50;;;9.50;1.00;;;;;;5055545;28;20472;-62
2023/04/02 03:22:37;;;;;;;3.80;0.40;;;9.50;1.00;;;;;;5058658;28;20557;-61
2023/04/02 03:25:42;;;;;;;4.27;0.40;;;9.50;1.00;;;;;;5055965;28;20399;-62
2023/04/02 03:28:14;;;;;;;4.68;0.40;;;9.50;1.00;;;;;;5060009;28;20462;-63
2023/04/02 03:30:52;;;;;;;3.80;0.40;;;9.60;1.00;;;;;;5059440;28;20492;-62
2023/04/02 03:33:28;;;;;;;5.63;0.50;;;9.50;1.00;;;;;;5060794;28;20400;-62
2023/04/02 03:36:09;;;;;;;5.10;0.40;;;9.50;1.00;;;;;;5055722;28;20400;-62
2023/04/02 03:38:42;;;;;;;4.10;0.60;;;9.50;40.60;;;;;;5058144;28;20397;-62
2023/04/02 03:41:46;;;;;;;5.10;0.50;;;10.30;99.90;;;;;;5058648;28;20400;-62
2023/04/02 03:44:22;;;;;;;5.30;0.50;;;9.50;92.70;;;;;;5035135;28;20816;-58
2023/04/02 03:46:56;;;;;;;5.60;0.70;;;9.50;99.90;;;;;;5056747;28;20460;-62
2023/04/02 03:49:46;;;;;;;3.95;0.60;;;9.40;99.90;;;;;;5058616;28;20425;-61
2023/04/02 03:52:16;;;;;;;3.78;0.40;;;9.40;99.90;;;;;;5056459;28;20757;-59
2023/04/02 03:54:43;;;;;;;3.80;0.40;;;9.40;99.90;;;;;;5056362;28;20427;-62
2023/04/02 03:57:23;;;;;;;4.25;0.50;;;9.40;99.90;;;;;;5066201;28;20412;-59
2023/04/02 04:00:13;;;;;;;4.13;0.40;;;9.30;1.00;;;;;;5066392;28;20404;-64
2023/04/02 04:02:51;;;;;;;3.80;0.50;;;9.30;1.00;;;;;;5031417;28;20474;-62
2023/04/02 04:05:34;;;;;;;3.90;0.50;;;9.80;99.90;;;;;;5051752;28;20401;-61
2023/04/02 04:08:13;;;;;;;4.80;0.70;;;10.40;1.90;;;;;;5052141;28;20423;-62
2023/04/02 04:10:40;;;;;;;3.70;0.40;;;9.30;10.90;;;;;;5068784;28;20428;-62
2023/04/02 04:13:23;;;;;;;3.80;0.43;;;9.30;99.90;;;;;;5053152;28;20407;-62
2023/04/02 04:16:15;;;;;;;4.00;0.40;;;9.40;99.90;;;;;;5047829;28;20399;-62
2023/04/02 04:18:51;;;;;;;4.13;0.50;;;9.40;18.90;;;;;;5041383;28;20510;-62
2023/04/02 04:21:29;;;;;;;4.05;0.40;;;9.50;93.10;;;;;;5042210;28;20873;-62
2023/04/02 04:24:02;;;;;;;4.20;0.50;;;9.50;1.00;;;;;;5051213;28;20924;-62
2023/04/02 04:26:54;;;;;;;3.70;0.40;;;9.80;31.70;;;;;;5052389;28;20397;-62
2023/04/02 04:29:44;;;;;;;3.90;0.60;;;9.50;1.00;;;;;;5049864;28;20431;-62
2023/04/02 04:32:32;;;;;;;4.60;1.00;;;9.50;99.90;;;;;;5060982;28;20423;-59
2023/04/02 04:35:30;;;;;;;4.60;0.60;;;9.60;1.00;;;;;;5044148;28;20422;-62
2023/04/02 04:38:02;;;;;;;5.28;0.70;;;9.60;1.00;;;;;;5044684;28;20425;-60
2023/04/02 04:40:34;;;;;;;3.90;0.60;;;9.70;1.00;;;;;;5041434;28;20408;-62
2023/04/02 04:43:04;;;;;;;4.55;0.80;;;9.70;99.90;;;;;;5042180;28;20425;-62
2023/04/02 04:45:50;;;;;;;4.18;0.68;;;9.70;1.00;;;;;;5038285;28;20390;-62
2023/04/02 04:48:21;;;;;;;5.10;0.63;;;9.80;1.00;;;;;;5060711;28;20938;-61
2023/04/02 04:51:02;;;;;;;4.50;0.80;;;9.80;1.00;;;;;;5060875;28;20441;-61
2023/04/02 04:53:29;;;;;;;4.30;0.90;;;9.80;1.00;;;;;;5040887;28;20426;-62
2023/04/02 04:56:04;;;;;;;4.10;0.70;;;9.70;1.00;;;;;;5045205;28;20397;-62
2023/04/02 04:58:44;;;;;;;4.30;0.75;;;9.70;96.90;;;;;;5044820;28;20406;-61
2023/04/02 05:01:34;;;;;;;4.40;0.70;;;11.20;99.90;;;;;;5042666;28;20410;-60
2023/04/02 05:04:30;;;;;;;5.60;1.00;;;9.80;1.00;;;;;;5046921;28;20408;-60
2023/04/02 05:07:12;;;;;;;4.00;0.60;;;9.70;99.90;;;;;;5045120;28;20385;-61
2023/04/02 05:09:50;;;;;;;4.40;0.73;;;9.70;99.90;;;;;;5043985;28;20459;-61
2023/04/02 05:12:36;;;;;;;5.75;0.60;;;9.70;1.00;;;;;;5039309;28;20399;-61
2023/04/02 05:15:17;;;;;;;3.95;0.40;;;9.80;99.90;;;;;;5040072;28;20405;-62
2023/04/02 05:18:07;;;;;;;4.00;0.50;;;9.70;99.90;;;;;;5043909;28;21194;-60
2023/04/02 05:21:10;;;;;;;4.50;0.50;;;9.70;1.00;;;;;;5045550;28;20398;-61
2023/04/02 05:23:44;;;;;;;3.80;0.50;;;9.70;99.90;;;;;;5043591;28;20402;-61
2023/04/02 05:26:31;;;;;;;4.05;0.55;;;9.70;37.40;;;;;;5043524;28;20879;-61
2023/04/02 05:29:16;;;;;;;3.92;0.40;;;9.70;1.00;;;;;;5044780;28;20587;-61
2023/04/02 05:31:48;;;;;;;4.20;0.40;;;9.60;1.00;;;;;;5043101;28;20393;-61
2023/04/02 05:34:24;;;;;;;3.78;0.40;;;9.60;1.00;;;;;;5043218;28;20386;-58
2023/04/02 05:36:50;;;;;;;5.20;0.53;;;9.60;1.00;;;;;;5051749;28;20391;-62
2023/04/02 05:39:24;;;;;;;3.80;0.40;;;9.60;99.90;;;;;;5052911;28;20488;-60
2023/04/02 05:42:02;;;;;;;3.70;0.40;;;9.50;1.00;;;;;;5052952;28;20437;-60
2023/04/02 05:44:34;;;;;;;4.10;0.60;;;9.50;99.90;;;;;;5061628;28;20385;-61
2023/04/02 05:47:03;;;;;;;3.80;0.40;;;9.60;99.90;;;;;;5057332;28;20759;-61
2023/04/02 05:49:34;;;;;;;4.70;0.50;;;9.60;98.80;;;;;;5044017;28;20421;-61
2023/04/02 05:52:03;;;;;;;3.90;0.40;;;9.70;38.10;;;;;;5049287;28;20498;-62
2023/04/02 05:54:38;;;;;;;3.70;0.40;;;9.90;99.90;;;;;;5045276;28;20766;-62
2023/04/02 05:57:12;;;;;;;3.90;0.50;;;9.90;1.00;;;;;;5046641;28;20390;-61
2023/04/02 05:59:48;;;;;;;4.00;0.70;;;9.90;1.00;;;;;;5065189;28;20428;-62
2023/04/02 06:02:25;;;;;;;4.82;0.50;;;10.00;1.00;;;;;;5054015;28;20401;-60
2023/04/02 06:05:14;;;;;;;4.45;0.60;;;11.30;99.90;;;;;;5046217;28;20467;-61
2023/04/02 06:08:11;;;;;;;3.90;0.40;;;10.00;1.00;;;;;;5048559;28;20490;-59
2023/04/02 06:10:49;;;;;;;4.60;0.70;;;10.00;1.00;;;;;;5065563;28;20412;-52
2023/04/02 06:13:17;;;;;;;5.53;0.80;;;10.20;1.00;;;;;;5057574;28;20412;-56
2023/04/02 06:15:43;;;;;;;4.47;1.10;;;10.10;99.90;;;;;;5055712;28;20589;-57
2023/04/02 06:18:47;;;;;;;4.75;1.20;;;10.30;1.00;;;;;;5046106;28;20413;-57
2023/04/02 06:21:16;;;;;;;5.30;1.80;;;10.40;1.00;;;;;;5020785;28;20403;-56
2023/04/02 06:24:00;;;;;;;5.60;2.10;;;10.50;99.90;;;;;;5047709;28;20385;-56
2023/04/02 06:26:39;;;;;;;6.93;1.30;;;10.40;99.90;;;;;;5046284;28;20757;-56
2023/04/02 06:29:26;;;;;;;5.22;1.05;;;11.20;1.00;;;;;;5050400;28;20417;-56
2023/04/02 06:31:57;;;;;;;4.60;1.00;;;10.30;1.00;;;;;;5046721;28;20409;-56
2023/04/02 06:34:25;;;;;;;5.80;1.00;;;10.40;1.00;;;;;;5041089;28;20410;-56
2023/04/02 06:36:55;;;;;;;5.88;1.20;;;10.40;1.00;;;;;;5045753;28;20401;-56
2023/04/02 06:39:23;;;;;;;5.18;1.08;;;10.60;1.00;;;;;;5050461;28;20468;-56
2023/04/02 06:42:04;;;;;;;4.68;1.00;;;10.60;99.90;;;;;;5051832;28;20382;-56
2023/04/02 06:44:35;;;;;;;5.28;1.02;;;10.60;96.40;;;;;;5051209;28;20389;-56
2023/04/02 06:47:24;;;;;;;6.85;1.30;;;10.60;55.80;;;;;;5049404;28;20405;-56
2023/04/02 06:50:00;;;;;;;5.60;1.73;;;10.70;1.00;;;;;;5048321;28;20903;-56
2023/04/02 06:52:34;;;;;;;7.00;1.60;;;10.60;1.00;;;;;;5030485;28;20421;-56
2023/04/02 06:55:06;;;;;;;5.32;1.35;;;10.80;99.90;;;;;;5031828;28;20391;-56
2023/04/02 06:57:34;;;;;;;6.80;1.90;;;11.00;99.90;;;;;;5025773;28;20390;-56
2023/04/02 07:00:00;;;;;;;5.03;1.10;;;11.00;1.00;;;;;;5051910;28;20389;-56
2023/04/02 07:02:36;;;;;;;4.80;0.82;;;11.00;1.00;;;;;;5050245;28;20404;-56
2023/04/02 07:05:11;;;;;;;4.80;0.90;;;11.10;1.00;;;;;;5051254;28;20402;-56
2023/04/02 07:07:36;;;;;;;5.60;1.00;;;11.20;1.00;;;;;;5050071;28;20897;-56
2023/04/02 07:10:02;;;;;;;5.27;0.90;;;11.10;99.90;;;;;;5051492;28;20389;-56
2023/04/02 07:12:28;;;;;;;6.00;1.15;;;11.30;99.90;;;;;;5050347;28;20489;-56
2023/04/02 07:14:54;;;;;;;4.90;1.08;;;11.30;99.90;;;;;;5051187;28;20389;-56
2023/04/02 07:17:20;;;;;;;4.90;1.10;;;11.40;99.90;;;;;;5050093;28;20383;-56
2023/04/02 07:19:48;;;;;;;5.15;1.20;;;11.40;99.90;;;;;;5049948;28;20763;-56
2023/04/02 07:22:18;;;;;;;5.33;1.50;;;11.40;99.90;;;;;;5050255;28;20410;-56
2023/04/02 07:24:45;;;;;;;5.28;1.10;;;11.40;62.10;;;;;;5053212;28;20867;-55
2023/04/02 07:27:13;;;;;;;4.82;1.10;;;11.40;1.00;;;;;;5061114;28;20467;-61
2023/04/02 07:29:41;;;;;;;5.03;1.02;;;11.30;34.10;;;;;;5051502;28;20508;-54
2023/04/02 07:32:13;;;;;;;5.95;1.20;;;11.40;15.30;;;;;;5063000;28;20388;-56
2023/04/02 07:34:40;;;;;;;5.00;0.80;;;11.30;1.00;;;;;;5050326;28;20385;-56
2023/04/02 07:37:06;;;;;;;7.00;0.70;;;11.30;4.80;;;;;;5050460;28;20420;-53
2023/04/02 07:39:32;;;;;;;4.30;0.75;;;11.20;1.00;;;;;;5053297;28;20704;-53
2023/04/02 07:42:00;;;;;;;5.10;1.02;;;11.30;23.30;;;;;;5050561;28;20396;-54
2023/04/02 07:44:25;;;;;;;4.40;0.80;;;11.50;1.00;;;;;;5060717;28;20399;-53
2023/04/02 07:46:51;;;;;;;4.53;0.73;;;11.60;1.00;;;;;;5064981;28;20397;-53
2023/04/02 07:49:17;;;;;;;4.60;0.90;;;11.80;1.00;;;;;;5050955;28;20416;-54
2023/04/02 07:51:42;;;;;;;4.40;0.70;;;11.80;1.00;;;;;;5050007;28;20401;-53
2023/04/02 07:54:09;;;;;;;4.25;0.70;;;11.70;1.00;;;;;;5059548;28;20874;-53
2023/04/02 07:56:35;;;;;;;5.10;1.10;;;11.70;1.00;;;;;;5061587;28;20531;-53
2023/04/02 07:59:01;;;;;;;5.27;0.83;;;11.60;1.00;;;;;;5047231;28;20416;-53
2023/04/02 08:01:28;;;;;;;4.60;0.60;;;11.50;1.00;;;;;;5049010;28;20482;-53
2023/04/02 08:03:55;;;;;;;4.57;0.77;;;11.20;1.00;;;;;;5039521;28;20541;-53
2023/04/02 08:06:22;;;;;;;8.63;2.88;;;11.10;42.00;;;;;;5031223;28;20379;-53
2023/04/02 08:08:47;;;;;;;5.47;1.10;;;11.20;2.70;;;;;;5053546;28;20509;-53
2023/04/02 08:11:13;;;;;;;6.30;1.23;;;11.30;1.00;;;;;;5050016;28;20465;-55
2023/04/02 08:13:38;;;;;;;4.40;0.70;;;11.40;1.00;;;;;;5049574;28;20377;-53
2023/04/02 08:16:06;;;;;;;4.20;0.50;;;11.60;1.00;;;;;;5051354;28;20401;-53
2023/04/02 08:18:31;;;;;;;4.80;0.80;;;11.70;1.00;;;;;;5052314;28;21082;-53
2023/04/02 08:20:58;;;;;;;4.30;0.70;;;11.80;1.00;;;;;;5055567;28;20875;-54
2023/04/02 08:23:25;;;;;;;5.25;0.60;;;11.80;1.00;;;;;;5049415;28;20432;-54
2023/04/02 08:25:52;;;;;;;4.90;0.90;;;11.80;1.00;;;;;;5049086;28;20401;-54
2023/04/02 08:28:18;;;;;;;4.40;0.70;;;11.80;1.00;;;;;;5050019;28;20851;-54
2023/04/02 08:30:44;;;;;;;5.55;0.90;;;11.90;99.90;;;;;;5046450;28;20436;-54
2023/04/02 08:33:10;;;;;;;4.70;0.80;;;12.10;99.90;;;;;;5049670;28;20409;-54
2023/04/02 08:35:36;;;;;;;4.40;0.80;;;12.10;99.90;;;;;;5047173;28;21010;-54
2023/04/02 08:38:02;;;;;;;4.80;0.60;;;12.00;99.90;;;;;;5052131;28;20409;-54
2023/04/02 08:40:35;;;;;;;4.70;0.70;;;12.00;99.90;;;;;;5057794;28;20708;-54
2023/04/02 08:43:31;;;;;;;4.20;0.55;;;11.90;99.90;;;;;;5059839;28;20384;-54
2023/04/02 08:46:21;;;;;;;4.50;0.90;;;11.90;1.00;;;;;;5049759;28;20400;-54
2023/04/02 08:48:54;;;;;;;4.40;0.80;;;11.90;66.00;;;;;;5048675;28;20413;-54
2023/04/02 08:51:26;;;;;;;4.40;0.70;;;12.00;93.70;;;;;;5048158;28;20412;-54
2023/04/02 08:54:21;;;;;;;4.20;0.60;;;12.10;1.00;;;;;;5048894;28;20389;-54
2023/04/02 08:57:15;;;;;;;4.50;0.77;;;12.50;1.00;;;;;;5025964;28;20415;-54
2023/04/02 08:59:43;;;;;;;4.28;0.60;;;12.90;99.90;;;;;;5029680;28;20558;-54
2023/04/02 09:02:20;;;;;;;4.65;0.63;;;13.20;99.90;;;;;;5045552;28;20395;-54
2023/04/02 09:04:46;;;;;;;4.40;0.60;;;14.10;99.90;;;;;;5058608;28;20381;-54
2023/04/02 09:07:14;;;;;;;4.20;0.40;;;12.50;99.90;;;;;;5048197;28;20454;-54
2023/04/02 09:09:40;;;;;;;4.30;0.50;;;12.80;99.90;;;;;;5053965;28;20413;-54
2023/04/02 09:12:14;;;;;;;6.77;0.90;;;12.80;99.90;;;;;;5047842;28;20403;-55
2023/04/02 09:14:44;;;;;;;4.57;0.50;;;12.90;99.90;;;;;;5050627;28;20488;-54
2023/04/02 09:17:19;;;;;;;4.20;0.55;;;13.10;99.90;;;;;;5064453;28;20911;-54
2023/04/02 09:20:16;;;;;;;4.20;0.60;;;12.90;67.00;;;;;;5039996;28;20395;-54
2023/04/02 09:22:49;;;;;;;4.20;0.60;;;12.80;56.10;;;;;;5051438;28;20782;-54
2023/04/02 09:25:21;;;;;;;4.00;0.40;;;12.90;93.80;;;;;;5055968;28;20893;-56
2023/04/02 09:27:49;;;;;;;4.25;0.43;;;13.10;36.40;;;;;;5047736;28;20417;-54
2023/04/02 09:30:29;;;;;;;5.00;0.50;;;13.10;1.00;;;;;;5061121;28;20426;-56
2023/04/02 09:32:57;;;;;;;4.90;0.50;;;13.20;1.00;;;;;;5065186;28;20390;-54
2023/04/02 09:35:25;;;;;;;5.20;0.60;;;13.20;1.00;;;;;;5056805;28;20407;-55
2023/04/02 09:38:09;;;;;;;4.82;0.60;;;13.30;1.00;;;;;;5052581;28;20407;-54
2023/04/02 09:41:04;;;;;;;5.00;0.50;;;13.30;1.00;;;;;;5062104;28;20400;-54
2023/04/02 09:43:35;;;;;;;4.80;0.90;;;13.50;1.00;;;;;;5045770;28;20883;-55
2023/04/02 09:46:24;;;;;;;4.50;0.80;;;13.60;1.00;;;;;;5059388;28;20446;-55
2023/04/02 09:48:56;;;;;;;4.30;0.38;;;13.80;1.00;;;;;;5049355;28;20421;-54
2023/04/02 09:51:25;;;;;;;4.10;0.40;;;13.30;1.00;;;;;;5063691;28;20397;-55
2023/04/02 09:54:07;;;;;;;4.40;0.60;;;13.40;1.00;;;;;;5056351;28;20401;-54
2023/04/02 09:56:35;;;;;;;5.07;0.95;;;13.50;1.00;;;;;;5059112;28;20407;-54
2023/04/02 09:59:21;;;;;;;4.13;0.45;;;13.60;1.00;;;;;;5057121;28;20397;-55
2023/04/02 10:01:53;;;;;;;4.30;0.50;;;13.60;1.00;;;;;;5052132;28;20410;-55
2023/04/02 10:04:48;;;;;;;5.30;0.60;;;13.70;1.00;;;;;;5052074;28;20401;-55
2023/04/02 10:07:52;;;;;;;4.30;0.60;;;14.00;1.00;;;;;;5044525;28;20484;-56
2023/04/02 10:10:36;;;;;;;4.43;0.50;;;13.80;1.00;;;;;;5043948;28;20417;-56
2023/04/02 10:13:07;;;;;;;4.83;1.00;;;13.90;1.00;;;;;;5056491;28;20397;-55
2023/04/02 10:15:52;;;;;;;4.30;0.60;;;14.30;1.00;;;;;;5032799;28;20863;-56
2023/04/02 10:18:39;;;;;;;4.60;0.70;;;14.80;1.00;;;;;;5045363;28;20429;-54
2023/04/02 10:21:06;;;;;;;4.50;0.70;;;15.00;1.00;;;;;;5061561;28;20971;-55
2023/04/02 10:23:32;;;;;;;5.40;0.52;;;15.00;1.00;;;;;;5065526;28;20384;-55
2023/04/02 10:26:40;;;;;;;8.87;4.63;;;14.70;1.00;;;;;;5058039;28;20443;-58
2023/04/02 10:29:43;;;;;;;5.60;1.00;;;14.70;1.00;;;;;;5059483;28;20452;-55
2023/04/02 10:32:24;;;;;;;4.60;0.80;;;15.30;1.00;;;;;;5064661;28;20422;-55
2023/04/02 10:35:24;;;;;;;5.20;0.75;;;15.50;1.00;;;;;;5063713;28;20403;-55
2023/04/02 10:38:02;;;;;;;4.50;0.70;;;15.40;1.00;;;;;;5016329;28;20793;-55
2023/04/02 10:40:35;;;;;;;5.40;0.60;;;15.20;1.00;;;;;;5051008;28;20482;-56
2023/04/02 10:43:22;;;;;;;4.50;0.55;;;14.70;1.00;;;;;;5049637;28;20768;-55
2023/04/02 10:46:05;;;;;;;4.30;0.52;;;15.00;1.00;;;;;;5049956;28;20471;-55
2023/04/02 10:48:45;;;;;;;4.20;0.50;;;15.10;1.00;;;;;;5051315;28;20463;-55
2023/04/02 10:51:31;;;;;;;4.40;0.50;;;15.30;1.00;;;;;;5050176;28;20505;-57
2023/04/02 10:54:26;;;;;;;4.20;0.40;;;14.90;1.00;;;;;;5048177;28;20446;-55
2023/04/02 10:57:05;;;;;;;4.50;0.50;;;14.60;1.00;;;;;;5058481;28;20396;-55
2023/04/02 10:59:34;;;;;;;4.60;0.70;;;14.50;1.00;;;;;;5061568;28;20425;-55
2023/04/02 11:02:05;;;;;;;4.60;0.50;;;14.70;1.00;;;;;;5060158;28;20386;-55
2023/04/02 11:04:52;;;;;;;5.20;0.70;;;14.70;1.00;;;;;;5058022;28;20417;-55
2023/04/02 11:07:22;;;;;;;4.80;0.65;;;14.50;1.00;;;;;;5054067;28;20878;-57
2023/04/02 11:09:52;;;;;;;4.30;0.50;;;14.10;1.00;;;;;;5052483;28;20538;-55
2023/04/02 11:12:26;;;;;;;4.50;0.70;;;14.20;1.00;;;;;;5059054;28;20397;-55
2023/04/02 11:14:54;;;;;;;4.30;0.55;;;14.20;1.00;;;;;;5058727;28;20491;-55
2023/04/02 11:17:20;;;;;;;7.40;1.10;;;14.00;1.00;;;;;;5059617;28;20464;-56
2023/04/02 11:19:45;;;;;;;6.90;1.10;;;13.90;1.00;;;;;;5061188;28;20442;-57
2023/04/02 11:22:22;;;;;;;5.35;0.82;;;14.00;1.00;;;;;;5062480;28;20403;-55
2023/04/02 11:24:49;;;;;;;4.40;0.50;;;14.10;1.00;;;;;;5061741;28;20868;-55
2023/04/02 11:27:28;;;;;;;4.30;0.52;;;14.20;1.00;;;;;;5060087;28;20501;-56
2023/04/02 11:30:16;;;;;;;4.27;0.57;;;14.20;1.00;;;;;;5049602;28;20883;-55
2023/04/02 11:32:46;;;;;;;6.28;1.00;;;14.20;1.00;;;;;;5050400;28;20426;-55
2023/04/02 11:35:30;;;;;;;8.18;2.47;;;14.20;1.00;;;;;;5050888;28;20750;-55
2023/04/02 11:38:03;;;;;;;6.00;1.30;;;14.10;1.00;;;;;;5051003;28;20474;-55
2023/04/02 11:40:48;;;;;;;5.10;0.82;;;13.80;1.00;;;;;;5069934;28;20383;-55
2023/04/02 11:43:32;;;;;;;4.60;0.60;;;13.80;1.00;;;;;;5059100;28;20413;-55
2023/04/02 11:46:03;;;;;;;4.70;0.70;;;14.20;1.00;;;;;;5054604;28;20777;-55
2023/04/02 11:48:36;;;;;;;4.45;0.55;;;14.40;1.00;;;;;;5042784;28;20507;-55
2023/04/02 11:51:21;;;;;;;4.50;0.73;;;14.50;1.00;;;;;;5055429;28;20395;-55
2023/04/02 11:53:48;;;;;;;6.97;1.70;;;14.60;1.00;;;;;;5058587;28;20991;-55
2023/04/02 11:56:53;;;;;;;6.15;1.58;;;14.50;1.00;;;;;;5059111;28;20887;-55
2023/04/02 11:59:52;;;;;;;5.00;0.90;;;14.70;1.00;;;;;;5057969;28;20421;-54
2023/04/02 12:02:30;;;;;;;6.33;0.90;;;15.20;1.00;;;;;;5057024;28;20393;-54
2023/04/02 12:05:42;;;;;;;4.30;0.60;;;15.20;1.00;;;;;;5049329;28;20874;-52
2023/04/02 12:08:21;;;;;;;4.47;0.60;;;15.10;1.00;;;;;;5016601;28;20431;-54
2023/04/02 12:10:59;;;;;;;4.70;0.85;;;15.10;1.00;;;;;;5050166;28;20901;-53
2023/04/02 12:13:40;;;;;;;4.72;0.90;;;14.80;1.00;;;;;;5049816;28;20409;-52
2023/04/02 12:16:13;;;;;;;5.27;0.80;;;14.70;1.00;;;;;;5058356;28;20454;-53
2023/04/02 12:18:47;;;;;;;4.68;0.73;;;14.60;1.00;;;;;;5056042;28;20388;-53
2023/04/02 12:21:17;;;;;;;6.00;1.10;;;14.50;1.00;;;;;;5057998;28;20438;-53
2023/04/02 12:23:46;;;;;;;4.70;0.80;;;14.90;1.00;;;;;;5031681;28;20827;-52
2023/04/02 12:26:26;;;;;;;4.80;0.70;;;14.90;1.00;;;;;;5051396;28;20479;-55
2023/04/02 12:28:52;;;;;;;4.90;0.90;;;14.80;1.00;;;;;;5058089;28;20428;-53
2023/04/02 12:31:24;;;;;;;4.90;0.90;;;14.70;1.00;;;;;;5057582;28;20388;-54
2023/04/02 12:33:52;;;;;;;5.00;0.90;;;14.50;1.00;;;;;;5054390;28;20485;-54
2023/04/02 12:36:21;;;;;;;4.60;0.70;;;14.40;1.00;;;;;;5051027;28;20472;-55
2023/04/02 12:38:51;;;;;;;5.18;0.80;;;14.20;1.00;;;;;;5048448;28;20404;-53
2023/04/02 12:41:23;;;;;;;4.80;1.00;;;14.20;1.00;;;;;;5048289;28;20444;-55
2023/04/02 12:44:14;;;;;;;4.90;0.70;;;14.40;1.00;;;;;;5049735;28;20440;-54
2023/04/02 12:46:40;;;;;;;4.63;0.70;;;14.30;1.00;;;;;;5053867;28;21015;-53
2023/04/02 12:49:30;;;;;;;5.35;0.70;;;14.10;1.00;;;;;;5055540;28;20525;-53
2023/04/02 12:51:56;;;;;;;4.90;1.15;;;14.10;1.00;;;;;;5048447;28;20423;-54
2023/04/02 12:54:22;;;;;;;4.70;0.75;;;14.00;1.00;;;;;;5054611;28;20394;-54
2023/04/02 12:56:49;;;;;;;4.43;0.73;;;13.90;1.00;;;;;;5048483;28;20428;-54
2023/04/02 12:59:30;;;;;;;5.00;1.20;;;13.60;1.00;;;;;;5030547;28;20469;-53
2023/04/02 13:02:01;;;;;;;6.30;1.40;;;13.40;1.00;;;;;;5048785;28;20720;-56
2023/04/02 13:04:26;;;;;;;7.57;1.90;;;13.00;1.00;;;;;;5047596;28;20743;-54
2023/04/02 13:06:57;;;;;;;6.45;1.33;;;12.50;1.00;;;;;;5048801;28;20377;-53
2023/04/02 13:09:32;;;;;;;5.55;1.55;;;12.20;1.00;;;;;;5048244;28;20779;-53
2023/04/02 13:11:58;;;;;;;5.80;1.20;;;11.90;99.90;;;;;;5048334;28;20397;-53
2023/04/02 13:14:25;;;;;;;5.45;1.40;;;11.70;1.00;;;;;;5047654;28;20381;-53
2023/04/02 13:16:51;;;;;;;5.30;1.50;;;11.60;63.40;;;;;;5047751;28;20467;-53
2023/04/02 13:19:21;;;;;;;4.83;1.10;;;11.50;99.90;;;;;;5048452;28;20819;-54
2023/04/02 13:21:46;;;;;;;4.72;1.20;;;11.50;99.90;;;;;;5048133;28;20415;-53
2023/04/02 13:24:21;;;;;;;4.50;1.13;;;11.30;99.90;;;;;;5048303;28;20476;-54
2023/04/02 13:26:48;;;;;;;4.88;1.15;;;11.00;99.90;;;;;;5048286;28;20397;-53
2023/04/02 13:29:16;;;;;;;5.23;1.10;;;11.10;99.90;;;;;;4984890;28;1787149;-53
2023/04/02 13:31:42;;;;;;;5.50;1.30;;;11.20;1.00;;;;;;5049205;28;20381;-53
2023/04/02 13:34:08;;;;;;;4.93;1.30;;;11.00;1.00;;;;;;5049387;28;20472;-53
2023/04/02 13:36:36;;;;;;;4.90;1.30;;;10.90;99.90;;;;;;5048751;28;20464;-53
2023/04/02 13:39:02;;;;;;;5.20;1.50;;;10.70;1.00;;;;;;5049171;28;20435;-52
2023/04/02 13:41:30;;;;;;;5.25;1.40;;;10.50;99.90;;;;;;5048534;28;20885;-53